createdAt,value
2022-08-08T00:00:41.125Z,3.80
2022-08-08T00:02:33.159Z,3.15
2022-08-08T00:05:10.402Z,3.10
2022-08-08T00:07:49.312Z,3.42
2022-08-08T00:10:28.342Z,3.30
2022-08-08T00:13:10.203Z,3.47
2022-08-08T00:15:57.104Z,3.07
2022-08-08T00:18:35.666Z,2.83
2022-08-08T00:21:07.895Z,2.63
2022-08-08T00:23:42.809Z,2.70
2022-08-08T00:26:21.874Z,3.00
2022-08-08T00:29:02.383Z,2.90
2022-08-08T00:32:33.009Z,3.15
2022-08-08T00:35:18.324Z,2.78
2022-08-08T00:38:03.982Z,2.80
2022-08-08T00:41:12.291Z,2.92
2022-08-08T00:44:00.798Z,3.20
2022-08-08T00:47:19.339Z,2.60
2022-08-08T00:50:15.357Z,2.80
2022-08-08T00:52:54.570Z,2.70
2022-08-08T00:56:02.729Z,2.88
2022-08-08T00:59:44.653Z,2.50
2022-08-08T01:03:57.439Z,2.60
2022-08-08T01:06:03.692Z,2.70
2022-08-08T01:09:36.845Z,2.50
2022-08-08T01:12:34.009Z,2.30
2022-08-08T01:15:44.529Z,2.10
2022-08-08T01:18:53.655Z,2.50
2022-08-08T01:22:13.676Z,2.60
2022-08-08T01:25:16.667Z,2.60
2022-08-08T01:28:04.747Z,3.00
2022-08-08T01:32:06.709Z,2.40
2022-08-08T01:34:35.613Z,2.70
2022-08-08T01:37:57.224Z,2.60
2022-08-08T01:40:31.150Z,3.15
2022-08-08T01:43:08.444Z,2.67
2022-08-08T01:45:56.144Z,3.05
2022-08-08T01:48:37.835Z,2.50
2022-08-08T01:51:31.863Z,2.27
2022-08-08T01:55:44.918Z,2.60
2022-08-08T01:57:25.773Z,2.60
2022-08-08T02:00:18.279Z,2.28
2022-08-08T02:03:04.585Z,3.10
2022-08-08T02:05:55.934Z,2.80
2022-08-08T02:08:39.253Z,2.78
2022-08-08T02:11:58.649Z,2.70
2022-08-08T02:14:25.198Z,2.80
2022-08-08T02:17:03.261Z,2.67
2022-08-08T02:20:07.764Z,3.20
2022-08-08T02:22:52.620Z,2.97
2022-08-08T02:25:32.867Z,2.50
2022-08-08T02:28:26.060Z,3.10
2022-08-08T02:31:43.173Z,2.67
2022-08-08T02:34:08.314Z,3.03
2022-08-08T02:36:52.010Z,2.90
2022-08-08T02:39:40.348Z,3.10
2022-08-08T02:42:47.865Z,3.00
2022-08-08T02:46:03.325Z,2.72
2022-08-08T02:49:18.641Z,2.92
2022-08-08T02:52:34.752Z,3.70
2022-08-08T02:55:31.796Z,3.10
2022-08-08T02:58:42.647Z,3.37
2022-08-08T03:01:47.308Z,3.22
2022-08-08T03:05:09.211Z,3.10
2022-08-08T03:08:20.768Z,3.53
2022-08-08T03:12:01.439Z,3.03
2022-08-08T03:15:59.847Z,3.58
2022-08-08T03:17:40.694Z,3.58
2022-08-08T03:20:10.166Z,3.35
2022-08-08T03:22:48.175Z,3.30
2022-08-08T03:25:35.893Z,3.60
2022-08-08T03:28:08.572Z,3.40
2022-08-08T03:30:36.730Z,3.78
2022-08-08T03:33:54.735Z,4.15
2022-08-08T03:36:10.236Z,3.20
2022-08-08T03:38:56.528Z,3.80
2022-08-08T03:42:27.658Z,3.50
2022-08-08T03:44:25.693Z,3.67
2022-08-08T03:46:54.406Z,3.87
2022-08-08T03:49:59.048Z,4.22
2022-08-08T03:52:13.201Z,3.92
2022-08-08T03:55:02.036Z,3.65
2022-08-08T03:58:33.515Z,3.80
2022-08-08T04:00:26.150Z,4.03
2022-08-08T04:02:59.776Z,4.30
2022-08-08T04:05:30.107Z,3.90
2022-08-08T04:07:59.181Z,4.20
2022-08-08T04:10:33.003Z,4.07
2022-08-08T04:13:03.812Z,3.80
2022-08-08T04:16:03.635Z,4.10
2022-08-08T04:18:37.063Z,4.50
2022-08-08T04:21:09.874Z,4.40
2022-08-08T04:24:05.897Z,4.43
2022-08-08T04:26:27.478Z,4.20
2022-08-08T04:29:08.658Z,4.38
2022-08-08T04:31:59.792Z,4.57
2022-08-08T04:34:26.809Z,4.22
2022-08-08T04:37:03.734Z,4.40
2022-08-08T04:40:03.440Z,4.67
2022-08-08T04:42:21.518Z,4.70
2022-08-08T04:44:52.660Z,4.37
2022-08-08T04:47:20.842Z,4.60
2022-08-08T04:50:00.901Z,4.40
2022-08-08T04:52:33.950Z,4.82
2022-08-08T04:55:04.415Z,4.50
2022-08-08T04:57:35.995Z,3.60
2022-08-08T05:00:08.226Z,4.00
2022-08-08T05:02:42.137Z,4.30
2022-08-08T05:05:19.998Z,4.10
2022-08-08T05:07:48.762Z,3.88
2022-08-08T05:10:18.064Z,3.83
2022-08-08T05:13:00.076Z,3.90
2022-08-08T05:16:47.753Z,3.40
2022-08-08T05:18:18.393Z,3.60
2022-08-08T05:20:49.993Z,3.72
2022-08-08T05:23:19.294Z,3.40
2022-08-08T05:25:48.762Z,3.58
2022-08-08T05:28:48.232Z,3.13
2022-08-08T05:31:12.571Z,3.30
2022-08-08T05:33:55.275Z,3.60
2022-08-08T05:36:28.161Z,3.92
2022-08-08T05:38:58.809Z,3.50
2022-08-08T05:41:27.863Z,3.70
2022-08-08T05:44:12.629Z,3.60
2022-08-08T05:46:42.859Z,3.85
2022-08-08T05:49:17.149Z,3.78
2022-08-08T05:51:49.253Z,3.70
2022-08-08T05:54:27.741Z,3.40
2022-08-08T05:57:11.940Z,3.85
2022-08-08T06:00:00.214Z,2.72
2022-08-08T06:03:03.413Z,3.80
2022-08-08T06:05:35.004Z,3.70
2022-08-08T06:08:10.525Z,3.20
2022-08-08T06:10:55.451Z,3.50
2022-08-08T06:13:23.615Z,2.90
2022-08-08T06:15:56.024Z,3.67
2022-08-08T06:18:26.542Z,3.30
2022-08-08T06:20:57.403Z,3.10
2022-08-08T06:23:49.002Z,3.20
2022-08-08T06:26:38.226Z,3.00
2022-08-08T06:29:26.385Z,3.08
2022-08-08T06:32:10.253Z,2.92
2022-08-08T06:34:42.453Z,2.60
2022-08-08T06:37:25.274Z,2.80
2022-08-08T06:39:58.152Z,2.40
2022-08-08T06:42:33.406Z,2.35
2022-08-08T06:45:05.515Z,2.50
2022-08-08T06:47:52.580Z,2.30
2022-08-08T06:50:31.837Z,2.30
2022-08-08T06:53:10.189Z,2.53
2022-08-08T06:55:43.497Z,2.35
2022-08-08T06:58:15.518Z,2.60
2022-08-08T07:00:50.208Z,2.00
2022-08-08T07:04:35.720Z,2.08
2022-08-08T07:06:23.389Z,2.17
2022-08-08T07:09:01.344Z,2.10
2022-08-08T07:11:50.685Z,1.60
2022-08-08T07:14:23.165Z,1.80
2022-08-08T07:17:09.266Z,1.60
2022-08-08T07:19:51.788Z,1.60
2022-08-08T07:22:35.864Z,1.70
2022-08-08T07:25:06.971Z,1.70
2022-08-08T07:28:00.822Z,1.90
2022-08-08T07:30:26.866Z,1.77
2022-08-08T07:32:59.523Z,1.70
2022-08-08T07:35:31.227Z,1.95
2022-08-08T07:38:10.536Z,2.35
2022-08-08T07:40:50.585Z,2.00
2022-08-08T07:43:35.229Z,1.80
2022-08-08T07:46:23.943Z,1.90
2022-08-08T07:48:53.842Z,1.80
2022-08-08T07:51:44.347Z,1.80
2022-08-08T07:54:26.809Z,1.80
2022-08-08T07:57:03.918Z,1.60
2022-08-08T07:59:46.444Z,1.70
2022-08-08T08:02:33.698Z,1.60
2022-08-08T08:05:15.143Z,1.90
2022-08-08T08:07:54.571Z,1.77
2022-08-08T08:10:30.755Z,1.65
2022-08-08T08:13:25.757Z,1.60
2022-08-08T08:16:11.416Z,1.50
2022-08-08T08:18:51.787Z,1.70
2022-08-08T08:21:44.853Z,1.60
2022-08-08T08:24:15.561Z,2.00
2022-08-08T08:26:52.417Z,1.80
2022-08-08T08:29:21.278Z,1.50
2022-08-08T08:31:54.163Z,1.90
2022-08-08T08:34:32.145Z,1.50
2022-08-08T08:37:03.498Z,1.70
2022-08-08T08:40:00.622Z,1.85
2022-08-08T08:42:31.850Z,1.90
2022-08-08T08:45:21.849Z,1.60
2022-08-08T08:47:54.305Z,1.80
2022-08-08T08:50:32.515Z,2.05
2022-08-08T08:53:54.924Z,1.60
2022-08-08T08:56:02.249Z,1.50
2022-08-08T08:58:33.442Z,1.35
2022-08-08T09:01:09.317Z,1.60
2022-08-08T09:03:46.961Z,1.67
2022-08-08T09:06:26.681Z,1.73
2022-08-08T09:09:02.576Z,1.80
2022-08-08T09:11:47.436Z,1.70
2022-08-08T09:14:25.890Z,1.40
2022-08-08T09:16:54.945Z,1.40
2022-08-08T09:21:53.555Z,1.50
2022-08-08T09:22:12.379Z,1.35
2022-08-08T09:24:42.833Z,1.95
2022-08-08T09:27:20.059Z,1.70
2022-08-08T09:29:53.158Z,1.80
2022-08-08T09:32:38.351Z,1.50
2022-08-08T09:35:08.713Z,1.48
2022-08-08T09:38:01.642Z,1.45
2022-08-08T09:40:46.437Z,1.80
2022-08-08T09:44:04.651Z,1.40
2022-08-08T09:46:25.526Z,1.60
2022-08-08T09:49:18.438Z,1.30
2022-08-08T09:52:06.879Z,1.50
2022-08-08T09:54:44.352Z,1.40
2022-08-08T09:57:16.255Z,1.40
2022-08-08T10:00:14.766Z,1.35
2022-08-08T10:02:42.059Z,1.50
2022-08-08T10:05:25.631Z,1.48
2022-08-08T10:07:59.972Z,1.48
2022-08-08T10:10:31.396Z,1.50
2022-08-08T10:13:13.804Z,1.40
2022-08-08T10:16:00.766Z,1.60
2022-08-08T10:18:31.828Z,1.40
2022-08-08T10:21:22.521Z,1.30
2022-08-08T10:23:57.828Z,1.60
2022-08-08T10:26:52.395Z,1.60
2022-08-08T10:29:24.928Z,1.40
2022-08-08T10:32:17.098Z,2.03
2022-08-08T10:34:58.490Z,1.80
2022-08-08T10:37:30.559Z,1.50
2022-08-08T10:40:02.348Z,1.70
2022-08-08T10:42:35.769Z,1.60
2022-08-08T10:45:09.252Z,1.50
2022-08-08T10:47:43.626Z,1.40
2022-08-08T10:50:16.437Z,1.70
2022-08-08T10:52:44.778Z,1.50
2022-08-08T10:55:39.145Z,1.60
2022-08-08T10:58:06.028Z,1.30
2022-08-08T11:00:48.372Z,1.20
2022-08-08T11:03:37.125Z,1.13
2022-08-08T11:06:12.700Z,1.70
2022-08-08T11:08:53.558Z,1.23
2022-08-08T11:11:59.550Z,1.30
2022-08-08T11:14:16.139Z,1.38
2022-08-08T11:16:47.397Z,1.20
2022-08-08T11:19:19.406Z,1.40
2022-08-08T11:21:56.139Z,1.50
2022-08-08T11:24:27.244Z,1.33
2022-08-08T11:27:10.604Z,1.70
2022-08-08T11:29:58.253Z,1.40
2022-08-08T11:32:39.955Z,1.40
2022-08-08T11:35:27.499Z,1.40
2022-08-08T11:38:36.161Z,1.30
2022-08-08T11:40:52.658Z,1.50
2022-08-08T11:43:24.944Z,1.60
2022-08-08T11:46:09.835Z,1.40
2022-08-08T11:48:45.023Z,1.40
2022-08-08T11:51:30.518Z,1.50
2022-08-08T11:54:26.918Z,1.50
2022-08-08T11:56:57.788Z,1.20
2022-08-08T11:59:58.763Z,1.20
2022-08-08T12:02:41.882Z,1.20
2022-08-08T12:05:13.108Z,1.67
2022-08-08T12:07:53.872Z,1.40
2022-08-08T12:10:26.005Z,1.50
2022-08-08T12:13:02.611Z,1.40
2022-08-08T12:15:40.169Z,1.50
2022-08-08T12:18:15.995Z,1.30
2022-08-08T12:20:46.021Z,1.20
2022-08-08T12:23:30.174Z,1.20
2022-08-08T12:26:09.956Z,1.40
2022-08-08T12:28:55.925Z,1.45
2022-08-08T12:31:39.128Z,1.30
2022-08-08T12:34:21.095Z,1.20
2022-08-08T12:37:08.324Z,1.25
2022-08-08T12:40:00.674Z,1.30
2022-08-08T12:42:33.261Z,1.10
2022-08-08T12:45:53.945Z,1.03
2022-08-08T12:48:09.590Z,1.20
2022-08-08T12:50:48.014Z,1.13
2022-08-08T12:53:24.961Z,1.20
2022-08-08T12:56:17.482Z,1.27
2022-08-08T12:58:47.847Z,1.10
2022-08-08T13:01:17.140Z,1.17
2022-08-08T13:03:52.742Z,1.20
2022-08-08T13:06:22.811Z,1.65
2022-08-08T13:08:56.085Z,1.20
2022-08-08T13:11:28.486Z,1.10
2022-08-08T13:14:16.311Z,1.10
2022-08-08T13:16:49.304Z,1.38
2022-08-08T13:19:20.366Z,1.20
2022-08-08T13:22:02.523Z,1.30
2022-08-08T13:24:42.284Z,1.23
2022-08-08T13:27:19.428Z,1.65
2022-08-08T13:29:50.810Z,1.33
2022-08-08T13:32:20.990Z,1.38
2022-08-08T13:34:53.373Z,1.50
2022-08-08T13:37:52.251Z,1.58
2022-08-08T13:40:17.630Z,1.30
2022-08-08T13:42:56.532Z,1.27
2022-08-08T13:45:26.368Z,1.30
2022-08-08T13:47:58.875Z,1.70
2022-08-08T13:50:36.645Z,1.33
2022-08-08T13:53:25.221Z,1.30
2022-08-08T13:56:02.187Z,1.30
2022-08-08T13:58:31.693Z,1.45
2022-08-08T14:01:13.699Z,1.30
2022-08-08T14:03:54.982Z,1.30
2022-08-08T14:06:33.114Z,1.40
2022-08-08T14:09:24.610Z,1.20
2022-08-08T14:11:50.649Z,1.10
2022-08-08T14:14:20.492Z,1.60
2022-08-08T14:16:50.693Z,1.20
2022-08-08T14:19:21.322Z,1.40
2022-08-08T14:22:22.353Z,1.50
2022-08-08T14:24:56.318Z,1.23
2022-08-08T14:27:29.918Z,1.30
2022-08-08T14:30:01.692Z,1.40
2022-08-08T14:32:31.832Z,1.48
2022-08-08T14:35:05.179Z,1.27
2022-08-08T14:37:43.157Z,1.20
2022-08-08T14:40:27.398Z,1.20
2022-08-08T14:42:59.818Z,1.20
2022-08-08T14:45:46.859Z,1.20
2022-08-08T14:48:34.408Z,1.37
2022-08-08T14:51:07.753Z,1.20
2022-08-08T14:53:55.244Z,1.30
2022-08-08T14:56:24.890Z,1.30
2022-08-08T14:58:54.218Z,1.20
2022-08-08T15:01:37.735Z,1.60
2022-08-08T15:04:11.560Z,1.30
2022-08-08T15:06:42.561Z,1.10
2022-08-08T15:09:13.553Z,1.15
2022-08-08T15:11:43.093Z,1.30
2022-08-08T15:14:26.399Z,1.20
2022-08-08T15:16:57.106Z,1.15
2022-08-08T15:19:27.885Z,1.20
2022-08-08T15:21:57.749Z,1.13
2022-08-08T15:24:31.153Z,1.10
2022-08-08T15:27:19.995Z,1.10
2022-08-08T15:29:48.606Z,1.10
2022-08-08T15:32:20.908Z,1.00
2022-08-08T15:34:51.150Z,1.10
2022-08-08T15:37:19.317Z,1.00
2022-08-08T15:39:47.960Z,1.00
2022-08-08T15:42:31.204Z,0.90
2022-08-08T15:45:00.982Z,1.10
2022-08-08T15:47:31.293Z,1.00
2022-08-08T15:50:00.369Z,1.00
2022-08-08T15:52:30.269Z,1.00
2022-08-08T15:55:03.465Z,1.38
2022-08-08T15:57:35.726Z,1.20
2022-08-08T16:00:26.331Z,1.20
2022-08-08T16:02:59.346Z,1.30
2022-08-08T16:05:35.875Z,1.27
2022-08-08T16:08:19.995Z,1.00
2022-08-08T16:13:27.174Z,0.90
2022-08-08T16:13:45.990Z,1.00
2022-08-08T16:16:17.898Z,1.20
2022-08-08T16:18:56.284Z,1.20
2022-08-08T16:21:28.133Z,1.00
2022-08-08T16:23:59.625Z,1.20
2022-08-08T16:26:34.391Z,0.90
2022-08-08T16:29:08.171Z,0.90
2022-08-08T16:31:44.809Z,0.88
2022-08-08T16:34:19.822Z,1.10
2022-08-08T16:36:50.951Z,1.00
2022-08-08T16:39:48.867Z,0.90
2022-08-08T16:42:18.004Z,1.00
2022-08-08T16:44:47.429Z,0.90
2022-08-08T16:47:40.307Z,1.00
2022-08-08T16:50:15.149Z,1.10
2022-08-08T16:55:03.837Z,1.00
2022-08-08T16:55:55.081Z,1.10
2022-08-08T16:58:21.385Z,1.10
2022-08-08T17:00:55.407Z,1.10
2022-08-08T17:03:58.147Z,1.10
2022-08-08T17:06:37.050Z,1.00
2022-08-08T17:09:03.460Z,1.10
2022-08-08T17:11:39.370Z,1.40
2022-08-08T17:14:19.221Z,0.80
2022-08-08T17:16:57.811Z,1.10
2022-08-08T17:19:27.069Z,1.40
2022-08-08T17:21:56.674Z,0.90
2022-08-08T17:24:29.072Z,1.10
2022-08-08T17:26:59.419Z,1.10
2022-08-08T17:29:33.402Z,1.00
2022-08-08T17:32:04.352Z,1.20
2022-08-08T17:34:49.367Z,1.00
2022-08-08T17:37:28.994Z,1.15
2022-08-08T17:40:11.078Z,1.20
2022-08-08T17:42:41.294Z,1.10
2022-08-08T17:45:22.802Z,1.20
2022-08-08T17:47:52.291Z,1.10
2022-08-08T17:50:22.459Z,1.00
2022-08-08T17:52:57.463Z,1.05
2022-08-08T17:56:05.366Z,1.00
2022-08-08T17:58:13.742Z,0.90
2022-08-08T18:00:41.830Z,1.30
2022-08-08T18:03:15.379Z,1.10
2022-08-08T18:05:49.331Z,1.20
2022-08-08T18:08:24.901Z,0.90
2022-08-08T18:11:11.496Z,0.80
2022-08-08T18:13:41.681Z,0.80
2022-08-08T18:16:11.316Z,1.00
2022-08-08T18:18:45.519Z,0.80
2022-08-08T18:21:34.713Z,0.98
2022-08-08T18:24:17.237Z,1.10
2022-08-08T18:26:53.707Z,1.00
2022-08-08T18:29:33.881Z,1.00
2022-08-08T18:32:04.642Z,1.07
2022-08-08T18:34:34.143Z,1.10
2022-08-08T18:37:08.466Z,1.40
2022-08-08T18:39:42.259Z,0.95
2022-08-08T18:42:14.263Z,1.05
2022-08-08T18:44:54.737Z,1.10
2022-08-08T18:47:24.889Z,1.30
2022-08-08T18:49:57.784Z,1.60
2022-08-08T18:52:28.202Z,1.35
2022-08-08T18:55:09.813Z,1.20
2022-08-08T18:57:45.379Z,1.38
2022-08-08T19:00:20.655Z,1.00
2022-08-08T19:02:56.455Z,1.30
2022-08-08T19:05:31.900Z,1.15
2022-08-08T19:08:25.156Z,1.08
2022-08-08T19:10:59.639Z,1.10
2022-08-08T19:13:52.494Z,1.40
2022-08-08T19:16:19.021Z,1.00
2022-08-08T19:19:01.956Z,1.20
2022-08-08T19:21:33.524Z,1.20
2022-08-08T19:24:38.697Z,1.30
2022-08-08T19:27:05.721Z,1.17
2022-08-08T19:29:40.557Z,1.10
2022-08-08T19:32:12.832Z,1.10
2022-08-08T19:34:49.434Z,0.90
2022-08-08T19:37:43.301Z,1.02
2022-08-08T19:40:09.442Z,0.90
2022-08-08T19:42:58.463Z,1.10
2022-08-08T19:45:58.777Z,0.98
2022-08-08T19:48:29.514Z,1.00
2022-08-08T19:50:59.063Z,0.90
2022-08-08T19:53:54.173Z,1.00
2022-08-08T19:56:16.477Z,1.00
2022-08-08T19:58:55.386Z,1.40
2022-08-08T20:01:50.186Z,1.50
2022-08-08T20:04:15.587Z,1.20
2022-08-08T20:06:43.637Z,1.10
2022-08-08T20:09:17.177Z,1.23
2022-08-08T20:11:52.090Z,1.10
2022-08-08T20:14:36.209Z,1.00
2022-08-08T20:17:11.650Z,1.10
2022-08-08T20:19:43.486Z,1.00
2022-08-08T20:22:13.316Z,1.20
2022-08-08T20:24:49.155Z,1.20
2022-08-08T20:27:20.539Z,0.90
2022-08-08T20:29:55.501Z,1.10
2022-08-08T20:32:29.559Z,1.10
2022-08-08T20:35:01.477Z,1.10
2022-08-08T20:37:37.204Z,1.10
2022-08-08T20:40:33.205Z,1.35
2022-08-08T20:43:13.180Z,1.10
2022-08-08T20:45:57.851Z,1.20
2022-08-08T20:48:31.420Z,1.10
2022-08-08T20:51:05.498Z,1.25
2022-08-08T20:54:00.009Z,1.17
2022-08-08T20:56:34.607Z,1.30
2022-08-08T20:59:05.632Z,1.30
2022-08-08T21:02:06.026Z,1.10
2022-08-08T21:04:24.129Z,1.20
2022-08-08T21:06:56.619Z,1.45
2022-08-08T21:09:31.731Z,1.40
2022-08-08T21:12:12.982Z,1.35
2022-08-08T21:14:43.964Z,1.20
2022-08-08T21:17:19.651Z,1.17
2022-08-08T21:19:47.689Z,1.50
2022-08-08T21:22:17.777Z,1.20
2022-08-08T21:24:52.656Z,1.50
2022-08-08T21:27:38.860Z,1.50
2022-08-08T21:30:18.701Z,1.50
2022-08-08T21:32:52.204Z,1.13
2022-08-08T21:36:16.114Z,1.33
2022-08-08T21:38:16.327Z,1.50
2022-08-08T21:40:56.094Z,1.40
2022-08-08T21:43:33.552Z,1.63
2022-08-08T21:48:03.906Z,1.35
2022-08-08T21:48:53.453Z,1.30
2022-08-08T21:54:17.857Z,1.60
2022-08-08T21:54:31.287Z,1.30
2022-08-08T21:57:00.606Z,1.60
2022-08-08T22:00:01.641Z,1.50
2022-08-08T22:02:22.823Z,1.60
2022-08-08T22:04:53.194Z,1.48
2022-08-08T22:07:26.062Z,1.50
2022-08-08T22:10:02.966Z,1.60
2022-08-08T22:12:38.829Z,1.67
2022-08-08T22:15:08.499Z,1.20
2022-08-08T22:17:45.237Z,1.50
2022-08-08T22:20:18.760Z,1.80
2022-08-08T22:22:52.622Z,1.70
2022-08-08T22:25:25.227Z,1.70
2022-08-08T22:28:03.746Z,1.40
2022-08-08T22:30:50.831Z,1.52
2022-08-08T22:34:10.678Z,1.63
2022-08-08T22:36:12.523Z,1.60
2022-08-08T22:38:48.947Z,1.40
2022-08-08T22:41:21.848Z,1.60
2022-08-08T22:44:02.870Z,1.60
2022-08-08T22:46:34.416Z,1.60
2022-08-08T22:49:07.006Z,1.80
2022-08-08T22:51:42.415Z,1.60
2022-08-08T22:54:33.781Z,1.50
2022-08-08T22:57:11.664Z,1.67
2022-08-08T22:59:58.711Z,1.70
2022-08-08T23:02:28.829Z,1.70
2022-08-08T23:04:57.893Z,1.70
2022-08-08T23:07:51.656Z,2.00
2022-08-08T23:10:21.480Z,1.60
2022-08-08T23:12:53.301Z,1.43
2022-08-08T23:16:38.799Z,1.80
2022-08-08T23:18:11.575Z,1.70
2022-08-08T23:20:41.035Z,1.52
2022-08-08T23:23:13.216Z,1.50
2022-08-08T23:25:48.279Z,1.50
2022-08-08T23:28:18.878Z,1.90
2022-08-08T23:30:47.595Z,1.70
2022-08-08T23:33:20.980Z,1.90
2022-08-08T23:36:08.045Z,1.70
2022-08-08T23:38:41.885Z,1.50
2022-08-08T23:41:23.218Z,1.70
2022-08-08T23:43:56.759Z,1.70
2022-08-08T23:49:08.146Z,1.80
2022-08-08T23:49:14.489Z,1.60
2022-08-08T23:52:04.029Z,1.50
2022-08-08T23:54:42.753Z,2.00
2022-08-08T23:57:26.678Z,1.90
